• Join FlightAware (Why Join?)
  • Login
  • US Flag GB Flag 
00:50 EST


 

Airport Tracker/Info


-or-


 

Live Flight TrackerFlight Track Log ✈ N27XP ✈ 09-Dec-2013 ✈ KCLT - KDAY

Flight Track Log - Related Links

Times and Time Zones

All times are in EST time to prevent confusion due to time zone crossing. See the N27XP flight status page for this flight to view local times or setup timezone preferences in your user account.

Time Position Orientation Groundspeed Altitude Reporting Facility
EST Latitude Longitude Course Direction KTS MPH feet Rate Location/Type
13:47 35.1203 -80.8647 144° Southeast 298 343 6,900  Level Atlanta Center
13:49 35.1050 -80.7611 100° East 349 402 8,000 1,380 Climbing Atlanta Center
13:50 35.1528 -80.6756 56° Northeast 327 376 9,800 2,160 Climbing Atlanta Center
13:51 35.2253 -80.6597 10° North 262 302 12,400 1,980 Climbing Atlanta Center
13:52 35.2856 -80.7236 319° Northwest 207 238 13,800 1,560 Climbing Atlanta Center
13:53 35.3583 -80.7969 321° Northwest 277 319 15,600 1,920 Climbing Atlanta Center
13:54 35.4333 -80.8706 321° Northwest 311 358 17,700 1,860 Climbing Atlanta Center
13:55 35.5061 -80.9467 320° Northwest 335 386 19,400 1,560 Climbing Atlanta Center
13:56 35.5831 -81.0231 321° Northwest 347 399 20,900 1,800 Climbing Atlanta Center
13:57 35.6600 -81.0969 322° Northwest 347 399 23,000 1,920 Climbing Atlanta Center
13:58 35.7306 -81.1711 320° Northwest 347 399 24,800 1,920 Climbing Atlanta Center
13:59 35.8097 -81.2528 320° Northwest 342 394 26,900 1,620 Climbing Atlanta Center
14:00 35.8844 -81.3297 320° Northwest 342 394 28,100 1,200 Climbing Atlanta Center
14:01 35.9614 -81.4092 320° Northwest 348 400 29,400 1,200 Climbing Atlanta Center
14:02 36.0422 -81.4886 322° Northwest 358 412 30,600 780 Climbing Atlanta Center
14:03 36.1253 -81.5761 320° Northwest 371 427 31,000 360 Climbing Atlanta Center
14:04 36.2083 -81.6636 320° Northwest 385 443 31,400 240 Climbing Atlanta Center
14:06 36.4119 -81.8758 320° Northwest 413 475 32,000 120 Climbing Indianapolis Center
14:07 36.5144 -81.9831 320° Northwest 412 474 32,000  Level Indianapolis Center
14:08 36.6019 -82.0742 320° Northwest 411 473 32,000  Level Indianapolis Center
14:09 36.6892 -82.1639 320° Northwest 408 470 32,000  Level Indianapolis Center
14:10 36.7728 -82.2525 320° Northwest 399 459 32,000  Level Indianapolis Center
14:11 36.8575 -82.3419 320° Northwest 398 458 32,000  Level Indianapolis Center
14:12 36.9422 -82.4328 319° Northwest 400 460 32,000  Level Indianapolis Center
14:13 37.0406 -82.5383 319° Northwest 401 461 32,000  Level Indianapolis Center
14:14 37.1256 -82.6275 320° Northwest 402 463 32,000 -120 Level Indianapolis Center
14:15 37.2092 -82.7189 319° Northwest 402 463 31,800 -840 Descending Indianapolis Center
14:16 37.2936 -82.8100 319° Northwest 403 464 30,300 -900 Descending Indianapolis Center
14:17 37.3789 -82.9028 319° Northwest 405 466 30,000 -180 Descending Indianapolis Center
14:18 37.4658 -82.9967 319° Northwest 411 473 30,000  Level Indianapolis Center
14:19 37.5678 -83.1069 319° Northwest 414 476 30,000  Level Indianapolis Center
14:20 37.6550 -83.2022 319° Northwest 415 478 30,000  Level Indianapolis Center
14:21 37.7428 -83.2978 319° Northwest 415 478 30,000  Level Indianapolis Center
14:22 37.8306 -83.3953 319° Northwest 418 481 30,000 -360 Level Indianapolis Center
14:23 37.9175 -83.4917 319° Northwest 416 479 29,300 -1,020 Descending Indianapolis Center
14:24 38.0056 -83.5886 319° Northwest 418 481 28,000 -840 Descending Indianapolis Center
14:26 38.1069 -83.7014 319° Northwest 416 479 27,600 -1,020 Descending Indianapolis Center
14:27 38.1931 -83.7969 319° Northwest 415 478 26,000 -1,620 Descending Indianapolis Center
14:28 38.2789 -83.8919 319° Northwest 409 471 24,300 -1,680 Descending Indianapolis Center
14:29 38.3619 -83.9853 319° Northwest 400 460 22,600 -1,680 Descending Indianapolis Center
14:30 38.4431 -84.0764 319° Northwest 391 450 20,900 -1,680 Descending Indianapolis Center
14:31 38.5233 -84.1678 318° Northwest 386 444 19,200 -1,740 Descending Indianapolis Center
14:32 38.6136 -84.2717 318° Northwest 372 428 17,400 -1,800 Descending Indianapolis Center
14:33 38.6958 -84.3289 331° Northwest 366 421 15,600 -1,680 Descending Indianapolis Center
14:34 38.7947 -84.3756 340° North 375 432 14,000 -1,260 Descending Indianapolis Center
14:35 38.8872 -84.4161 341° North 355 409 13,000 -1,260 Descending Indianapolis Center
14:36 38.9842 -84.4606 340° North 365 420 11,500 -1,500 Descending Indianapolis Center
14:37 39.0767 -84.5003 342° North 353 406 10,000 -840 Descending Indianapolis Center
14:38 39.1653 -84.5339 344° North 324 373 10,000  Level Indianapolis Center
14:38 39.1825 -84.5336 North 333 383 10,000  Level Indianapolis Center
14:39 39.2800 -84.4989 15° North 360 414 10,000  Level Indianapolis Center
14:40 39.3647 -84.4286 33° Northeast 366 421 10,000  Level Indianapolis Center
14:41 39.4483 -84.3631 31° Northeast 356 410 10,000  Level Indianapolis Center
14:41 39.4558 -84.3586 25° Northeast 345 397 10,000 -540 Level Indianapolis Center
14:42 39.5317 -84.3153 24° Northeast 334 384 9,500 -720 Descending Indianapolis Center
14:42 39.5456 -84.3067 26° Northeast 324 373 9,300 -1,200 Descending Indianapolis Center
14:43 39.6139 -84.2700 22° Northeast 326 375 8,300 -1,200 Descending Indianapolis Center
14:43 39.6261 -84.2642 20° North 312 359 8,100 -1,440 Descending Indianapolis Center
14:44 39.6989 -84.2308 19° North 295 339 7,000 -1,020 Descending Indianapolis Center
14:44 39.6917 -84.2331 193° South 307 353 7,100 -1,020 Climbing Indianapolis Center
14:45 39.7744 -84.1953 19° North 289 333 6,000 -1,140 Descending Indianapolis Center
14:45 39.7831 -84.1908 22° Northeast 295 339 6,000 -840 Level Indianapolis Center
14:46 39.8511 -84.1461 27° Northeast 280 322 5,100 -900 Descending Indianapolis Center
14:46 39.8522 -84.1450 38° Northeast 288 331 5,100 -1,500 Level Indianapolis Center
14:47 39.8936 -84.0625 57° Northeast 280 322 3,500 -1,020 Descending Indianapolis Center
14:48 39.9403 -83.9831 53° Northeast 280 322 3,000 -480 Descending Indianapolis Center
14:48 39.9464 -83.9800 21° North 278 320 3,000  Level Indianapolis Center
14:49 39.9983 -84.0272 325° Northwest 208 239 3,000  Level Indianapolis Center
14:50 39.9822 -84.0792 248° West 189 217 3,000  Level Indianapolis Center
14:50 39.9833 -84.0808 311° West 212 244 3,000 -300 Level Indianapolis Center
14:51 39.9575 -84.1283 235° Southwest 181 208 2,700 -480 Descending Indianapolis Center
14:52 39.9347 -84.1719 236° Southwest 122 140 2,100 -720 Descending Indianapolis Center
14:52 39.9314 -84.1756 220° Southwest 154 177 2,000 -780 Descending Indianapolis Center
14:53 39.9189 -84.2019 238° Southwest 113 130 1,400 -240 Descending Indianapolis Center
14:53 39.9106 -84.2136 227° Southwest 149 171 1,800 1,560 Climbing Indianapolis Center